Time;durP1;ratioP1;P1;durP2;ratioP2;P2;SDS_P1;SDS_P2;PMS_P1;PMS_P2;Temp;Humidity;BMP_temperature;BMP_pressure;BME280_temperature;BME280_humidity;BME280_pressure;Samples;Min_cycle;Max_cycle;Signal;HPM_P1;HPM_P2
2023/12/18 00:00:20;;;;;;;2.60;1.60;;;23.30;47.30;;;;;;3084865;28;20070;-45
2023/12/18 00:01:52;;;;;;;2.35;1.65;;;23.20;47.30;;;;;;3082129;28;20163;-45
2023/12/18 00:03:24;;;;;;;1.85;1.35;;;23.20;47.40;;;;;;3082076;28;20080;-47
2023/12/18 00:04:55;;;;;;;3.83;1.65;;;23.30;47.30;;;;;;3083175;28;20474;-45
2023/12/18 00:06:26;;;;;;;2.95;1.50;;;23.20;47.30;;;;;;3085747;28;20053;-47
2023/12/18 00:07:57;;;;;;;2.90;1.60;;;23.10;47.50;;;;;;3085949;28;20054;-48
2023/12/18 00:09:28;;;;;;;2.50;1.67;;;23.00;47.50;;;;;;3082542;28;20513;-47
2023/12/18 00:10:59;;;;;;;2.47;1.70;;;23.10;47.40;;;;;;3083852;28;20077;-49
2023/12/18 00:12:31;;;;;;;2.35;1.55;;;23.00;47.50;;;;;;3077624;28;20039;-46
2023/12/18 00:14:01;;;;;;;1.70;1.35;;;23.10;47.50;;;;;;3078648;28;20413;-49
2023/12/18 00:15:33;;;;;;;2.10;1.50;;;23.00;47.50;;;;;;3080841;28;20043;-46
2023/12/18 00:17:05;;;;;;;2.65;1.50;;;23.00;47.50;;;;;;3081008;28;20070;-45
2023/12/18 00:18:37;;;;;;;2.30;1.50;;;22.70;47.90;;;;;;3077404;28;20090;-47
2023/12/18 00:20:08;;;;;;;1.67;1.40;;;22.80;47.90;;;;;;3081212;28;20328;-45
2023/12/18 00:21:39;;;;;;;1.70;1.27;;;22.90;47.70;;;;;;3080844;28;20051;-45
2023/12/18 00:23:10;;;;;;;3.20;1.60;;;22.80;47.80;;;;;;3087357;28;20046;-45
2023/12/18 00:24:42;;;;;;;2.30;1.63;;;22.90;47.50;;;;;;3080757;28;20045;-47
2023/12/18 00:26:12;;;;;;;2.28;1.50;;;23.00;47.30;;;;;;3082480;28;20393;-49
2023/12/18 00:27:44;;;;;;;2.72;1.60;;;22.80;47.40;;;;;;3081458;28;20047;-48
2023/12/18 00:29:14;;;;;;;1.80;1.40;;;22.70;47.60;;;;;;3081516;28;20051;-50
2023/12/18 00:30:46;;;;;;;1.90;1.50;;;22.70;47.90;;;;;;3080272;28;20047;-47
2023/12/18 00:32:18;;;;;;;1.92;1.60;;;22.70;47.90;;;;;;3081125;28;20085;-47
2023/12/18 00:33:50;;;;;;;2.35;1.30;;;22.70;47.90;;;;;;3081536;28;20090;-47
2023/12/18 00:35:21;;;;;;;2.92;1.75;;;22.70;47.90;;;;;;3081455;28;20048;-47
2023/12/18 00:36:52;;;;;;;2.70;1.73;;;22.70;47.90;;;;;;3080794;28;20117;-47
2023/12/18 00:38:24;;;;;;;2.35;1.80;;;22.70;47.90;;;;;;3080952;28;20050;-47
2023/12/18 00:39:54;;;;;;;2.47;1.50;;;22.80;47.40;;;;;;3080311;28;20058;-46
2023/12/18 00:41:26;;;;;;;2.42;1.50;;;22.80;47.40;;;;;;3085562;28;20039;-47
2023/12/18 00:42:57;;;;;;;2.80;1.65;;;22.80;47.40;;;;;;3083008;28;20458;-49
2023/12/18 00:44:28;;;;;;;1.88;1.48;;;22.70;47.50;;;;;;3080543;28;20043;-46
2023/12/18 00:46:00;;;;;;;2.35;1.50;;;22.70;47.90;;;;;;3085860;28;20093;-47
2023/12/18 00:47:33;;;;;;;1.85;1.50;;;22.80;47.60;;;;;;3084528;28;20046;-47
2023/12/18 00:49:04;;;;;;;2.25;1.50;;;22.70;47.50;;;;;;3082322;28;20058;-47
2023/12/18 00:50:35;;;;;;;2.63;1.70;;;22.70;47.50;;;;;;3083012;28;20043;-49
2023/12/18 00:52:06;;;;;;;2.42;1.55;;;22.50;47.80;;;;;;3083787;28;20058;-47
2023/12/18 00:53:38;;;;;;;2.50;1.73;;;22.60;47.80;;;;;;3081877;28;20057;-46
2023/12/18 00:55:09;;;;;;;2.38;1.70;;;22.70;47.60;;;;;;3078025;28;20085;-48
2023/12/18 00:56:40;;;;;;;2.42;1.73;;;22.70;47.50;;;;;;3083862;28;20054;-49
2023/12/18 00:58:11;;;;;;;1.60;1.17;;;22.70;47.40;;;;;;3082494;28;20059;-49
2023/12/18 00:59:42;;;;;;;3.22;1.50;;;22.60;47.60;;;;;;3084146;28;20045;-47
2023/12/18 01:01:13;;;;;;;2.25;1.52;;;22.60;47.40;;;;;;3080775;28;20087;-47
2023/12/18 01:02:47;;;;;;;2.40;1.50;;;22.60;47.60;;;;;;3080903;28;20634;-47
2023/12/18 01:04:17;;;;;;;1.85;1.55;;;22.50;47.60;;;;;;3080792;28;20039;-49
2023/12/18 01:05:49;;;;;;;2.08;1.35;;;22.50;47.60;;;;;;3082199;28;20055;-45
2023/12/18 01:07:20;;;;;;;2.78;1.50;;;22.60;47.50;;;;;;3080770;28;20077;-47
2023/12/18 01:08:51;;;;;;;2.38;1.40;;;22.50;47.60;;;;;;3080999;28;20181;-45
2023/12/18 01:10:22;;;;;;;1.75;1.30;;;22.50;47.60;;;;;;3079250;28;20047;-48
2023/12/18 01:11:53;;;;;;;2.58;1.65;;;22.40;47.70;;;;;;3085111;28;20412;-44
2023/12/18 01:13:24;;;;;;;2.88;1.42;;;22.50;47.60;;;;;;3084816;28;20078;-45
2023/12/18 01:14:56;;;;;;;1.92;1.25;;;22.50;47.40;;;;;;3085005;28;20085;-45
2023/12/18 01:16:26;;;;;;;2.22;1.70;;;22.30;47.50;;;;;;3084548;28;20082;-50
2023/12/18 01:17:59;;;;;;;2.28;1.63;;;22.30;47.70;;;;;;3086039;28;20053;-45
2023/12/18 01:19:30;;;;;;;3.33;1.80;;;22.40;47.60;;;;;;3080685;28;20079;-49
2023/12/18 01:21:03;;;;;;;2.17;1.60;;;22.40;47.50;;;;;;3078002;28;20054;-44
2023/12/18 01:22:34;;;;;;;2.35;1.50;;;22.40;47.60;;;;;;3082373;28;20050;-45
2023/12/18 01:24:06;;;;;;;2.10;1.55;;;22.30;47.70;;;;;;3081276;28;20074;-49
2023/12/18 01:25:37;;;;;;;2.70;1.40;;;22.40;47.80;;;;;;3076978;28;20047;-45
2023/12/18 01:27:08;;;;;;;1.50;1.40;;;22.30;47.70;;;;;;3075741;28;20053;-45
2023/12/18 01:28:40;;;;;;;1.70;1.38;;;22.50;47.60;;;;;;3080443;28;20042;-45
2023/12/18 01:30:13;;;;;;;1.95;1.30;;;22.30;47.60;;;;;;3080877;28;20105;-48
2023/12/18 01:31:44;;;;;;;2.10;1.58;;;22.30;47.60;;;;;;3085384;28;20060;-47
2023/12/18 01:33:17;;;;;;;2.15;1.50;;;22.20;47.60;;;;;;3082897;28;20398;-51
2023/12/18 01:34:47;;;;;;;3.33;1.40;;;22.30;47.70;;;;;;3078268;28;20093;-47
2023/12/18 01:36:19;;;;;;;1.73;1.40;;;22.30;47.60;;;;;;3083131;28;20042;-47
2023/12/18 01:37:50;;;;;;;2.05;1.27;;;22.40;47.40;;;;;;3081289;28;20051;-45
2023/12/18 01:39:22;;;;;;;2.00;1.52;;;22.30;47.40;;;;;;3084552;28;20049;-45
2023/12/18 01:40:52;;;;;;;2.08;1.40;;;22.30;47.50;;;;;;3083197;28;20047;-45
2023/12/18 01:42:24;;;;;;;2.10;1.63;;;22.40;47.40;;;;;;3084461;28;20046;-52
2023/12/18 01:43:55;;;;;;;1.63;1.50;;;22.30;47.50;;;;;;3082682;28;20085;-45
2023/12/18 01:45:26;;;;;;;1.88;1.50;;;22.30;47.60;;;;;;3087157;28;20042;-46
2023/12/18 01:46:57;;;;;;;1.73;1.27;;;22.30;47.50;;;;;;3085634;28;20468;-45
2023/12/18 01:48:30;;;;;;;1.83;1.42;;;22.40;47.30;;;;;;3086816;28;20039;-47
2023/12/18 01:50:02;;;;;;;2.33;1.52;;;22.30;47.50;;;;;;3084562;28;20082;-45
2023/12/18 01:51:34;;;;;;;2.47;1.50;;;22.30;47.30;;;;;;3087521;28;20043;-45
2023/12/18 01:53:04;;;;;;;1.77;1.23;;;22.30;47.40;;;;;;3084913;28;20498;-45
2023/12/18 01:54:36;;;;;;;1.50;1.30;;;22.20;47.50;;;;;;3082753;28;20051;-45
2023/12/18 01:56:07;;;;;;;3.53;1.70;;;22.20;47.60;;;;;;3087323;28;20082;-45
2023/12/18 01:57:38;;;;;;;2.30;1.60;;;22.10;47.60;;;;;;3080067;28;20489;-44
2023/12/18 01:59:09;;;;;;;2.67;1.83;;;22.20;47.50;;;;;;3077671;28;20047;-45
2023/12/18 02:00:41;;;;;;;2.28;1.67;;;22.10;47.60;;;;;;3083621;28;20054;-49
2023/12/18 02:02:11;;;;;;;1.65;1.40;;;22.10;47.60;;;;;;3081680;28;20058;-45
2023/12/18 02:03:44;;;;;;;2.45;1.58;;;22.10;47.60;;;;;;3089585;28;20493;-49
2023/12/18 02:05:15;;;;;;;2.92;1.50;;;22.10;47.60;;;;;;3084872;28;20078;-45
2023/12/18 02:06:47;;;;;;;2.13;1.45;;;22.10;47.60;;;;;;3083751;28;20049;-48
2023/12/18 02:08:17;;;;;;;2.00;1.33;;;22.10;47.60;;;;;;3087868;28;20094;-44
2023/12/18 02:09:49;;;;;;;2.28;1.42;;;22.10;47.60;;;;;;3084198;28;20456;-44
2023/12/18 02:11:19;;;;;;;2.08;1.60;;;22.00;47.50;;;;;;3083281;28;20054;-45
2023/12/18 02:12:51;;;;;;;2.40;1.80;;;22.00;47.50;;;;;;3080509;28;20051;-47
2023/12/18 02:14:22;;;;;;;2.50;1.60;;;22.00;47.50;;;;;;3084554;28;20054;-45
2023/12/18 02:15:53;;;;;;;2.35;1.50;;;22.00;47.50;;;;;;3083116;28;20050;-47
2023/12/18 02:17:24;;;;;;;2.83;1.58;;;22.00;47.50;;;;;;3084539;28;20081;-45
2023/12/18 02:18:57;;;;;;;2.10;1.40;;;22.00;47.50;;;;;;3081840;28;20524;-48
2023/12/18 02:20:28;;;;;;;1.85;1.40;;;22.00;47.40;;;;;;3080085;28;20061;-44
2023/12/18 02:21:59;;;;;;;2.10;1.45;;;21.90;47.60;;;;;;3081751;28;20055;-46
2023/12/18 02:23:31;;;;;;;1.77;1.58;;;21.90;47.80;;;;;;3078464;28;20085;-45
2023/12/18 02:25:03;;;;;;;1.85;1.35;;;22.00;47.50;;;;;;3080823;28;20493;-45
2023/12/18 02:26:35;;;;;;;2.07;1.50;;;21.90;47.50;;;;;;3083304;28;20043;-45
2023/12/18 02:28:07;;;;;;;1.85;1.38;;;22.00;47.50;;;;;;3083442;28;20333;-49
2023/12/18 02:29:39;;;;;;;2.15;1.50;;;22.00;47.50;;;;;;3084142;28;20409;-45
2023/12/18 02:31:10;;;;;;;2.65;1.58;;;22.00;47.30;;;;;;3085148;28;20046;-47
2023/12/18 02:32:42;;;;;;;2.97;1.75;;;22.00;47.50;;;;;;3079434;28;20042;-47
2023/12/18 02:34:13;;;;;;;1.70;1.50;;;21.90;47.50;;;;;;3076703;28;20513;-45
2023/12/18 02:36:31;;;;;;;2.10;1.40;;;21.80;47.50;;;;;;3075330;28;20045;-45
2023/12/18 02:38:02;;;;;;;1.65;1.48;;;21.80;47.50;;;;;;3081266;28;20505;-45
2023/12/18 02:39:35;;;;;;;2.28;1.42;;;21.80;48.40;;;;;;3078305;28;20050;-44
2023/12/18 02:41:06;;;;;;;2.45;1.40;;;21.80;47.60;;;;;;3075759;28;20091;-46
2023/12/18 02:42:37;;;;;;;2.55;1.63;;;21.80;47.80;;;;;;3082363;28;20058;-45
2023/12/18 02:44:08;;;;;;;2.33;1.70;;;21.80;47.70;;;;;;3084115;28;20082;-46
2023/12/18 02:45:39;;;;;;;2.10;1.17;;;21.80;47.40;;;;;;3084932;28;20416;-47
2023/12/18 02:47:10;;;;;;;1.83;1.40;;;21.80;47.40;;;;;;3084924;28;20054;-49
2023/12/18 02:48:41;;;;;;;2.17;1.50;;;21.80;47.40;;;;;;3084430;28;20050;-48
2023/12/18 02:50:12;;;;;;;2.60;1.50;;;21.80;47.50;;;;;;3081000;28;20079;-50
2023/12/18 02:51:44;;;;;;;3.42;1.60;;;21.80;47.50;;;;;;3091061;28;20122;-46
2023/12/18 02:53:17;;;;;;;2.70;1.50;;;21.70;47.70;;;;;;3081594;28;20054;-48
2023/12/18 02:54:49;;;;;;;1.92;1.40;;;21.70;47.60;;;;;;3083335;28;20058;-46
2023/12/18 02:56:23;;;;;;;3.03;1.57;;;21.80;47.40;;;;;;3081050;28;20046;-46
2023/12/18 02:57:53;;;;;;;3.03;1.50;;;21.70;47.40;;;;;;3085603;28;20325;-47
2023/12/18 02:59:25;;;;;;;2.67;1.80;;;21.80;47.40;;;;;;3084409;28;20042;-48
2023/12/18 03:00:56;;;;;;;2.20;1.67;;;21.70;47.40;;;;;;3082136;28;20142;-48
2023/12/18 03:02:27;;;;;;;2.75;1.42;;;21.80;47.40;;;;;;3079783;28;20043;-46
2023/12/18 03:03:58;;;;;;;2.72;1.67;;;21.80;47.40;;;;;;3083985;28;20086;-46
2023/12/18 03:05:29;;;;;;;1.90;1.40;;;21.70;47.50;;;;;;3083743;28;20042;-49
2023/12/18 03:07:00;;;;;;;2.53;1.67;;;21.70;47.40;;;;;;3079758;28;20051;-48
2023/12/18 03:08:31;;;;;;;3.38;1.75;;;21.60;47.60;;;;;;3083796;28;20046;-50
2023/12/18 03:10:05;;;;;;;2.97;1.73;;;21.60;47.70;;;;;;3081400;28;20455;-47
2023/12/18 03:11:37;;;;;;;1.80;1.33;;;21.60;47.70;;;;;;3083790;28;20464;-47
2023/12/18 03:13:07;;;;;;;2.78;1.50;;;21.60;47.40;;;;;;3090037;28;20463;-47
2023/12/18 03:14:39;;;;;;;2.58;1.60;;;21.60;47.50;;;;;;3082691;28;20046;-46
2023/12/18 03:16:09;;;;;;;2.10;1.52;;;21.60;47.50;;;;;;3088718;28;20483;-49
2023/12/18 03:17:41;;;;;;;2.70;1.50;;;21.60;47.60;;;;;;3085265;28;20049;-48
2023/12/18 03:19:12;;;;;;;3.38;1.73;;;21.60;47.50;;;;;;3085823;28;20074;-47
2023/12/18 03:20:43;;;;;;;2.38;1.60;;;21.60;47.40;;;;;;3083955;28;20046;-47
2023/12/18 03:22:14;;;;;;;2.40;1.50;;;21.60;47.40;;;;;;3082452;28;20110;-48
2023/12/18 03:23:46;;;;;;;2.13;1.30;;;21.60;47.30;;;;;;3084298;28;20691;-47
2023/12/18 03:25:18;;;;;;;2.42;1.58;;;21.60;47.60;;;;;;3088367;28;20074;-47
2023/12/18 03:26:49;;;;;;;2.38;1.52;;;21.60;47.40;;;;;;3082726;28;20059;-47
2023/12/18 03:28:20;;;;;;;2.05;1.55;;;21.60;47.30;;;;;;3083362;28;20050;-47
2023/12/18 03:29:52;;;;;;;2.83;1.55;;;21.40;47.70;;;;;;3082084;28;20051;-46
2023/12/18 03:31:22;;;;;;;2.42;1.58;;;21.40;47.80;;;;;;3082901;28;20043;-47
2023/12/18 03:32:55;;;;;;;2.03;1.58;;;21.50;47.70;;;;;;3084384;28;20070;-47
2023/12/18 03:34:25;;;;;;;;;;;21.50;47.50;;;;;;3085026;28;20453;-47
2023/12/18 03:35:57;;;;;;;2.45;1.63;;;21.40;47.30;;;;;;3084380;28;20004;-49
2023/12/18 03:37:29;;;;;;;1.73;1.60;;;21.50;47.50;;;;;;3085879;28;20051;-47
2023/12/18 03:38:59;;;;;;;2.63;1.60;;;21.50;47.30;;;;;;3080171;28;21472;-47
2023/12/18 03:40:32;;;;;;;2.22;1.40;;;21.50;47.30;;;;;;3084913;28;20050;-47
2023/12/18 03:42:04;;;;;;;2.90;1.63;;;21.40;47.50;;;;;;3083455;28;20059;-46
2023/12/18 03:43:35;;;;;;;1.95;1.48;;;21.40;47.60;;;;;;3077067;28;20047;-46
2023/12/18 03:45:07;;;;;;;2.95;1.40;;;21.40;47.50;;;;;;3081800;28;20050;-47
2023/12/18 03:46:39;;;;;;;2.10;1.60;;;21.40;47.50;;;;;;3086688;28;20050;-47
2023/12/18 03:48:09;;;;;;;3.05;1.58;;;21.40;47.60;;;;;;3090957;28;20290;-48
2023/12/18 03:49:41;;;;;;;2.35;1.63;;;21.40;47.60;;;;;;3084874;28;20404;-46
2023/12/18 03:51:12;;;;;;;1.98;1.45;;;21.40;47.50;;;;;;3082936;28;20073;-48
2023/12/18 03:52:43;;;;;;;2.33;1.65;;;21.40;47.60;;;;;;3086312;28;20046;-50
2023/12/18 03:54:14;;;;;;;2.38;1.38;;;21.30;47.70;;;;;;3083000;28;20051;-44
2023/12/18 03:55:47;;;;;;;2.35;1.60;;;21.30;47.60;;;;;;3085745;28;20055;-46
2023/12/18 03:57:18;;;;;;;2.42;1.63;;;21.30;47.60;;;;;;3081747;28;20059;-44
2023/12/18 03:58:49;;;;;;;2.47;1.60;;;21.30;47.60;;;;;;3083842;28;20536;-45
2023/12/18 04:00:20;;;;;;;2.33;1.55;;;21.30;47.60;;;;;;3086185;28;20057;-44
2023/12/18 04:01:52;;;;;;;2.03;1.50;;;21.30;47.60;;;;;;3084607;28;20046;-44
2023/12/18 04:03:22;;;;;;;1.83;1.40;;;21.20;47.70;;;;;;3082500;28;20065;-44
2023/12/18 04:04:54;;;;;;;1.98;1.35;;;21.20;47.80;;;;;;3080725;28;20051;-50
2023/12/18 04:06:24;;;;;;;2.53;1.70;;;21.20;47.90;;;;;;3081940;28;20050;-44
2023/12/18 04:07:56;;;;;;;2.00;1.58;;;21.30;47.80;;;;;;3077640;28;20043;-48
2023/12/18 04:09:27;;;;;;;2.67;1.48;;;21.30;47.80;;;;;;3082654;28;20042;-45
2023/12/18 04:11:00;;;;;;;3.55;1.70;;;21.60;47.60;;;;;;3082911;28;20486;-48
2023/12/18 04:12:31;;;;;;;1.67;1.40;;;21.70;47.40;;;;;;3080470;28;20493;-45
2023/12/18 04:14:02;;;;;;;2.63;1.73;;;21.90;47.10;;;;;;3078205;28;20050;-45
2023/12/18 04:15:34;;;;;;;2.40;1.63;;;22.00;47.00;;;;;;3082918;28;20466;-45
2023/12/18 04:17:05;;;;;;;3.58;1.55;;;22.00;46.90;;;;;;3082978;28;20059;-47
2023/12/18 04:18:37;;;;;;;2.22;1.50;;;22.10;47.00;;;;;;3082340;28;20409;-44
2023/12/18 04:20:08;;;;;;;2.70;1.48;;;22.20;47.00;;;;;;3082083;28;20512;-45
2023/12/18 04:21:40;;;;;;;2.05;1.50;;;22.20;47.00;;;;;;3087479;28;20042;-48
2023/12/18 04:23:10;;;;;;;1.63;1.25;;;22.30;46.90;;;;;;3080928;28;20137;-45
2023/12/18 04:24:42;;;;;;;1.38;1.10;;;22.40;46.80;;;;;;3080522;28;20043;-44
2023/12/18 04:26:14;;;;;;;2.45;1.25;;;22.50;46.70;;;;;;3075690;28;20055;-44
2023/12/18 04:27:46;;;;;;;4.15;1.40;;;22.50;46.70;;;;;;3081978;28;20545;-46
2023/12/18 04:29:17;;;;;;;2.25;1.58;;;22.60;46.60;;;;;;3079765;28;20062;-46
2023/12/18 04:30:48;;;;;;;1.80;1.45;;;22.60;46.60;;;;;;3081031;28;20482;-48
2023/12/18 04:32:19;;;;;;;1.55;1.05;;;22.60;46.70;;;;;;3082634;28;20178;-47
2023/12/18 04:33:51;;;;;;;1.30;1.17;;;22.60;46.70;;;;;;3082466;28;20536;-47
2023/12/18 04:35:21;;;;;;;1.73;1.20;;;22.70;46.60;;;;;;3083503;28;20412;-47
2023/12/18 04:36:53;;;;;;;2.22;1.40;;;22.70;46.60;;;;;;3081719;28;20047;-47
2023/12/18 04:38:24;;;;;;;2.15;1.20;;;22.80;46.60;;;;;;3082267;28;20054;-47
2023/12/18 04:39:55;;;;;;;1.85;1.40;;;22.80;46.50;;;;;;3083479;28;20059;-50
2023/12/18 04:41:27;;;;;;;1.30;1.20;;;22.80;46.50;;;;;;3084000;28;20054;-46
2023/12/18 04:42:59;;;;;;;1.35;1.02;;;22.80;46.60;;;;;;3082730;28;20058;-48
2023/12/18 04:44:30;;;;;;;2.17;1.38;;;22.90;46.40;;;;;;3083276;28;20409;-48
2023/12/18 04:46:01;;;;;;;1.63;1.13;;;22.90;46.40;;;;;;3083863;28;20046;-47
2023/12/18 04:47:32;;;;;;;1.45;1.20;;;22.90;46.30;;;;;;3084705;28;20055;-46
2023/12/18 04:49:04;;;;;;;1.55;1.13;;;23.00;46.30;;;;;;3084868;28;20054;-50
2023/12/18 04:50:34;;;;;;;1.35;1.10;;;23.00;46.30;;;;;;3083721;28;20057;-49
2023/12/18 04:52:06;;;;;;;1.42;1.10;;;23.00;46.50;;;;;;3086726;28;20046;-49
2023/12/18 04:53:38;;;;;;;1.80;1.17;;;23.10;46.40;;;;;;3085396;28;20218;-47
2023/12/18 04:55:08;;;;;;;1.73;1.27;;;23.10;46.30;;;;;;3083153;28;20053;-47
2023/12/18 04:56:41;;;;;;;2.10;1.20;;;23.10;46.30;;;;;;3085942;28;20047;-46
2023/12/18 04:58:12;;;;;;;1.42;1.20;;;23.10;46.30;;;;;;3080169;28;20054;-47
2023/12/18 04:59:44;;;;;;;3.50;1.13;;;23.10;46.30;;;;;;3078558;28;20046;-47
2023/12/18 05:01:14;;;;;;;2.08;1.30;;;23.20;46.30;;;;;;3080975;28;20047;-47
2023/12/18 05:02:46;;;;;;;1.63;1.20;;;23.20;46.40;;;;;;3081289;28;20042;-48
2023/12/18 05:04:17;;;;;;;1.85;1.48;;;23.20;46.40;;;;;;3084938;28;20505;-49
2023/12/18 05:05:49;;;;;;;1.65;1.40;;;23.20;46.40;;;;;;3080362;28;20118;-50
2023/12/18 05:07:19;;;;;;;1.60;1.30;;;23.20;46.50;;;;;;3080827;28;20046;-48
2023/12/18 05:08:51;;;;;;;1.25;1.10;;;23.20;46.50;;;;;;3081680;28;20058;-47
2023/12/18 05:10:22;;;;;;;1.40;1.10;;;23.20;46.50;;;;;;3081362;28;20054;-47
2023/12/18 05:11:55;;;;;;;1.35;1.20;;;23.20;46.50;;;;;;3083665;28;20065;-47
2023/12/18 05:13:25;;;;;;;1.85;1.33;;;23.20;46.50;;;;;;3082270;28;20054;-47
2023/12/18 05:14:57;;;;;;;1.95;1.20;;;23.20;46.60;;;;;;3082357;28;20417;-51
2023/12/18 05:16:28;;;;;;;1.50;1.15;;;23.20;46.60;;;;;;3081520;28;20486;-47
2023/12/18 05:17:59;;;;;;;1.73;1.10;;;23.30;46.60;;;;;;3080532;28;20054;-47
2023/12/18 05:19:30;;;;;;;1.40;1.10;;;23.30;46.50;;;;;;3082227;28;20062;-47
2023/12/18 05:21:02;;;;;;;1.27;1.10;;;23.30;46.40;;;;;;3082645;28;20047;-47
2023/12/18 05:22:34;;;;;;;2.22;1.20;;;23.40;46.50;;;;;;3079123;28;20046;-47
2023/12/18 05:24:06;;;;;;;2.22;1.20;;;23.40;46.40;;;;;;3079528;28;20047;-51
2023/12/18 05:25:36;;;;;;;1.33;1.13;;;23.40;46.40;;;;;;3088556;28;20521;-48
2023/12/18 05:27:09;;;;;;;2.70;1.40;;;23.40;46.40;;;;;;3079815;28;20057;-47
2023/12/18 05:28:40;;;;;;;1.65;1.20;;;23.40;46.50;;;;;;3083263;28;20051;-47
2023/12/18 05:30:12;;;;;;;1.75;1.30;;;23.50;46.40;;;;;;3078950;28;20055;-49
2023/12/18 05:31:43;;;;;;;2.20;1.30;;;23.50;46.40;;;;;;3083439;28;20077;-47
2023/12/18 05:33:14;;;;;;;1.67;1.10;;;23.60;46.20;;;;;;3082065;28;20043;-48
2023/12/18 05:34:45;;;;;;;1.85;1.30;;;23.60;46.40;;;;;;3085279;28;20038;-49
2023/12/18 05:36:16;;;;;;;1.70;1.00;;;23.50;46.40;;;;;;3083292;28;20058;-47
2023/12/18 05:37:47;;;;;;;2.22;1.40;;;23.60;46.50;;;;;;3081000;28;20061;-48
2023/12/18 05:39:19;;;;;;;1.63;1.20;;;23.50;46.60;;;;;;3081186;28;20481;-47
2023/12/18 05:40:49;;;;;;;1.98;1.30;;;23.50;46.80;;;;;;3077707;28;20500;-46
2023/12/18 05:42:22;;;;;;;1.77;1.20;;;23.50;46.90;;;;;;3079743;28;20047;-47
2023/12/18 05:43:53;;;;;;;1.52;1.17;;;23.60;47.00;;;;;;3081516;28;20062;-47
2023/12/18 05:45:24;;;;;;;1.50;1.20;;;23.60;47.10;;;;;;3082301;28;20043;-49
2023/12/18 05:46:55;;;;;;;1.63;1.30;;;23.60;47.30;;;;;;3084761;28;20057;-48
2023/12/18 05:48:27;;;;;;;1.73;1.27;;;23.60;47.40;;;;;;3084686;28;20127;-47
2023/12/18 05:49:58;;;;;;;3.13;1.33;;;23.60;47.20;;;;;;3083408;28;20054;-47
2023/12/18 05:51:29;;;;;;;2.40;1.40;;;23.70;47.20;;;;;;3084313;28;20411;-49
2023/12/18 05:53:00;;;;;;;2.15;1.33;;;23.70;47.30;;;;;;3082347;28;20051;-47
2023/12/18 05:54:32;;;;;;;1.92;1.30;;;23.70;47.20;;;;;;3081922;28;20046;-48
2023/12/18 05:56:03;;;;;;;2.65;1.25;;;23.80;47.30;;;;;;3081876;28;20050;-47
2023/12/18 05:57:36;;;;;;;1.95;1.23;;;23.80;47.20;;;;;;3080918;28;20049;-49
2023/12/18 05:59:07;;;;;;;2.35;1.40;;;23.80;47.20;;;;;;3081907;28;20063;-47
2023/12/18 06:00:38;;;;;;;2.65;1.30;;;23.80;47.20;;;;;;3084205;28;20730;-46
2023/12/18 06:02:09;;;;;;;2.72;1.10;;;23.70;47.40;;;;;;3081869;28;20051;-47
2023/12/18 06:03:40;;;;;;;1.98;1.38;;;23.60;47.80;;;;;;3083901;28;20042;-47
2023/12/18 06:05:12;;;;;;;2.70;1.60;;;23.50;47.90;;;;;;3083630;28;20050;-48
2023/12/18 06:06:43;;;;;;;2.63;1.40;;;23.50;48.00;;;;;;3085526;28;20047;-48
2023/12/18 06:08:14;;;;;;;4.22;1.30;;;23.50;48.30;;;;;;3084307;28;20062;-46
2023/12/18 06:09:45;;;;;;;3.60;1.38;;;23.60;48.30;;;;;;3080791;28;20043;-49
2023/12/18 06:11:16;;;;;;;5.65;1.67;;;23.50;48.30;;;;;;3075975;28;20059;-46
2023/12/18 06:12:51;;;;;;;3.65;1.55;;;23.60;48.30;;;;;;3078108;28;20051;-46
2023/12/18 06:14:21;;;;;;;2.35;1.40;;;23.70;48.40;;;;;;3079423;28;20082;-46
2023/12/18 06:15:53;;;;;;;3.25;1.70;;;23.70;48.40;;;;;;3083172;28;20046;-46
2023/12/18 06:17:24;;;;;;;4.40;2.00;;;23.70;48.20;;;;;;3079866;28;20065;-50
2023/12/18 06:18:55;;;;;;;3.15;1.60;;;23.80;48.00;;;;;;3081090;28;20042;-46
2023/12/18 06:20:26;;;;;;;2.53;1.70;;;23.70;48.10;;;;;;3088002;28;20117;-46
2023/12/18 06:21:58;;;;;;;4.47;1.40;;;23.80;47.90;;;;;;3084521;28;20487;-49
2023/12/18 06:23:28;;;;;;;3.45;1.52;;;23.80;48.10;;;;;;3085994;28;20054;-46
2023/12/18 06:25:00;;;;;;;2.28;1.50;;;23.70;48.00;;;;;;3087926;28;20067;-48
2023/12/18 06:26:30;;;;;;;3.78;1.48;;;23.50;48.40;;;;;;3083163;28;20049;-47
2023/12/18 06:28:04;;;;;;;2.40;1.30;;;23.40;48.90;;;;;;3083633;28;20051;-49
2023/12/18 06:29:35;;;;;;;2.50;1.40;;;23.30;49.20;;;;;;3084843;28;20053;-47
2023/12/18 06:31:06;;;;;;;4.75;1.40;;;23.30;49.20;;;;;;3081308;28;20047;-47
2023/12/18 06:32:38;;;;;;;5.18;1.35;;;23.30;49.20;;;;;;3081032;28;20058;-46
2023/12/18 06:34:10;;;;;;;1.88;1.33;;;23.30;49.30;;;;;;3084435;28;20283;-46
2023/12/18 06:35:42;;;;;;;1.65;1.20;;;23.30;49.50;;;;;;3089438;28;20209;-47
2023/12/18 06:37:13;;;;;;;2.65;1.45;;;23.30;49.40;;;;;;3082428;28;20070;-46
2023/12/18 06:38:44;;;;;;;5.53;1.55;;;23.50;49.30;;;;;;3088602;28;20050;-49
2023/12/18 06:40:15;;;;;;;6.03;1.70;;;23.40;49.50;;;;;;3085127;28;20097;-46
2023/12/18 06:41:47;;;;;;;3.60;1.52;;;23.30;49.70;;;;;;3085191;28;20082;-46
2023/12/18 06:43:19;;;;;;;4.45;1.50;;;23.40;49.70;;;;;;3084225;28;20058;-47
2023/12/18 06:44:50;;;;;;;5.57;1.90;;;23.40;49.70;;;;;;3082314;28;20693;-47
2023/12/18 06:46:21;;;;;;;3.85;1.75;;;23.40;49.60;;;;;;3084925;28;20079;-49
2023/12/18 06:47:53;;;;;;;3.83;2.00;;;23.30;49.80;;;;;;3083945;28;20054;-49
2023/12/18 06:49:23;;;;;;;6.60;2.20;;;23.50;49.50;;;;;;3087471;28;20081;-48
2023/12/18 06:50:55;;;;;;;7.50;2.22;;;23.30;49.40;;;;;;3084884;28;20051;-47
2023/12/18 06:52:26;;;;;;;4.57;2.28;;;23.30;49.50;;;;;;3084499;28;20050;-47
2023/12/18 06:53:57;;;;;;;6.20;1.92;;;23.30;49.70;;;;;;3083781;28;20405;-47
2023/12/18 06:55:28;;;;;;;5.00;1.90;;;23.20;49.70;;;;;;3083043;28;20086;-47
2023/12/18 06:57:00;;;;;;;5.63;2.28;;;23.20;49.70;;;;;;3086212;28;20247;-48
2023/12/18 06:58:32;;;;;;;5.07;2.35;;;23.20;50.20;;;;;;3087329;28;20047;-47
2023/12/18 07:00:04;;;;;;;5.38;2.00;;;23.30;49.60;;;;;;3084345;28;20047;-48
2023/12/18 07:01:35;;;;;;;15.13;2.40;;;23.30;49.50;;;;;;3084233;28;20047;-46
2023/12/18 07:03:07;;;;;;;20.45;3.78;;;23.40;49.30;;;;;;3081095;28;20516;-46
2023/12/18 07:04:37;;;;;;;9.07;4.53;;;23.50;48.30;;;;;;3086190;28;20046;-46
2023/12/18 07:06:09;;;;;;;12.05;3.90;;;23.70;47.90;;;;;;3086715;28;20567;-47
2023/12/18 07:07:40;;;;;;;15.90;3.95;;;23.70;48.00;;;;;;3084003;28;20047;-48
2023/12/18 07:09:11;;;;;;;17.83;5.10;;;23.80;48.00;;;;;;3083572;28;20046;-47
2023/12/18 07:10:43;;;;;;;12.30;4.93;;;23.80;47.40;;;;;;3082607;28;20058;-47
2023/12/18 07:12:15;;;;;;;17.23;5.32;;;23.70;47.00;;;;;;3089561;28;20051;-48
2023/12/18 07:13:47;;;;;;;12.85;5.20;;;23.70;46.80;;;;;;3082939;28;20062;-48
2023/12/18 07:15:19;;;;;;;15.38;5.32;;;23.80;46.40;;;;;;3085644;28;20042;-47
2023/12/18 07:16:52;;;;;;;12.48;4.95;;;23.80;45.70;;;;;;3082305;28;20059;-47
2023/12/18 07:18:24;;;;;;;11.07;4.57;;;23.70;45.90;;;;;;3085474;28;20045;-47
2023/12/18 07:19:55;;;;;;;11.63;4.32;;;23.60;46.10;;;;;;3080769;28;20529;-48
2023/12/18 07:21:26;;;;;;;12.95;4.80;;;23.40;46.40;;;;;;3083647;28;20054;-49
2023/12/18 07:22:57;;;;;;;12.38;3.88;;;23.30;46.70;;;;;;3083918;28;20062;-47
2023/12/18 07:24:32;;;;;;;8.93;3.97;;;23.40;46.60;;;;;;3082128;28;20094;-48
2023/12/18 07:26:03;;;;;;;10.25;3.42;;;23.30;46.70;;;;;;3080614;28;20058;-47
2023/12/18 07:27:35;;;;;;;7.47;3.70;;;23.30;46.90;;;;;;3082208;28;20075;-46
2023/12/18 07:29:07;;;;;;;9.90;3.33;;;23.40;46.80;;;;;;3083219;28;20051;-49
2023/12/18 07:30:38;;;;;;;9.32;4.07;;;23.30;46.80;;;;;;3086753;28;20050;-47
2023/12/18 07:32:09;;;;;;;10.25;3.85;;;23.30;46.90;;;;;;3084872;28;20055;-48
2023/12/18 07:33:41;;;;;;;8.68;3.22;;;23.30;46.80;;;;;;3082862;28;20401;-47
2023/12/18 07:35:11;;;;;;;9.80;3.70;;;23.40;46.80;;;;;;3079945;28;20058;-47
2023/12/18 07:36:43;;;;;;;7.05;3.33;;;23.40;46.80;;;;;;3080804;28;20046;-47
2023/12/18 07:38:14;;;;;;;9.55;3.95;;;23.50;46.70;;;;;;3079840;28;20055;-47
2023/12/18 07:39:45;;;;;;;8.93;3.40;;;23.40;46.80;;;;;;3084257;28;20046;-47
2023/12/18 07:41:16;;;;;;;9.38;3.40;;;23.40;46.90;;;;;;3081525;28;20051;-49
2023/12/18 07:42:48;;;;;;;5.85;3.20;;;23.40;46.90;;;;;;3081761;28;20413;-48
2023/12/18 07:44:20;;;;;;;8.52;3.53;;;23.30;47.00;;;;;;3084083;28;20047;-47
2023/12/18 07:45:51;;;;;;;7.65;3.60;;;23.30;47.20;;;;;;3083047;28;20042;-47
2023/12/18 07:47:23;;;;;;;7.20;3.20;;;23.40;47.30;;;;;;3081746;28;20179;-52
2023/12/18 07:48:53;;;;;;;9.80;3.17;;;23.30;47.40;;;;;;3084115;28;20520;-47
2023/12/18 07:50:25;;;;;;;6.85;3.25;;;23.30;47.30;;;;;;3081615;28;20054;-47
2023/12/18 07:51:57;;;;;;;8.68;3.42;;;23.30;47.30;;;;;;3079122;28;20047;-47
2023/12/18 07:53:27;;;;;;;8.60;3.20;;;23.40;47.40;;;;;;3083921;28;20429;-47
2023/12/18 07:54:59;;;;;;;7.28;3.33;;;23.40;47.30;;;;;;3080267;28;20066;-49